Terminal Aerodrome Forecast
Issued by NWS

Current Version | Previous Version | Graphics & Text | Print | Product List | Glossary On
Versions: 1 2 3 4 5 6 7 8 9 10 11 12 13 14 15 16 17 18 19 20 21 22 23 24 25
000
FTUS41 KRLX 061134
TAFCKB
TAF
KCKB 061134Z 0612/0712 08007KT P6SM -RA OVC090
     FM061600 11009G17KT 6SM -RA OVC035
      TEMPO 0616/0620 4SM -RA OVC025
     FM062000 15008KT 4SM -RA OVC025
     FM062300 16007KT 4SM -RA OVC015
     FM070100 18006KT P6SM OVC015
     FM070400 25008KT P6SM OVC008
     FM070900 26007KT P6SM BKN015=

USA.gov is the U.S. government's official web portal to all federal, state and local government web resources and services.